createdAt,value
2022-12-03T00:00:13.554Z,99.90
2022-12-03T00:02:42.761Z,99.90
2022-12-03T00:05:11.927Z,99.90
2022-12-03T00:07:40.586Z,99.90
2022-12-03T00:10:11.893Z,99.90
2022-12-03T00:12:41.226Z,99.90
2022-12-03T00:15:11.797Z,99.90
2022-12-03T00:17:40.400Z,99.90
2022-12-03T00:20:10.882Z,99.90
2022-12-03T00:22:39.467Z,99.90
2022-12-03T00:25:10.692Z,99.90
2022-12-03T00:27:39.229Z,99.90
2022-12-03T00:30:09.344Z,99.90
2022-12-03T00:32:37.866Z,99.90
2022-12-03T00:35:07.168Z,99.90
2022-12-03T00:37:36.049Z,99.90
2022-12-03T00:40:05.230Z,99.90
2022-12-03T00:42:35.165Z,99.90
2022-12-03T00:45:03.694Z,99.90
2022-12-03T00:47:32.448Z,99.90
2022-12-03T00:50:00.950Z,99.90
2022-12-03T00:52:30.326Z,99.90
2022-12-03T00:54:58.801Z,99.90
2022-12-03T00:57:27.341Z,99.90
2022-12-03T00:59:57.264Z,99.90
2022-12-03T01:02:26.769Z,99.90
2022-12-03T01:04:55.579Z,99.90
2022-12-03T01:07:24.400Z,99.90
2022-12-03T01:09:52.918Z,99.90
2022-12-03T01:12:21.510Z,99.90
2022-12-03T01:14:50.217Z,99.90
2022-12-03T01:17:20.192Z,99.90
2022-12-03T01:19:48.809Z,99.90
2022-12-03T01:22:17.334Z,99.90
2022-12-03T01:24:45.839Z,99.90
2022-12-03T01:27:14.338Z,99.90
2022-12-03T01:29:42.752Z,99.90
2022-12-03T01:32:19.951Z,99.90
2022-12-03T01:34:51.603Z,99.90
2022-12-03T01:37:22.186Z,99.90
2022-12-03T01:39:50.943Z,99.90
2022-12-03T01:42:22.512Z,99.90
2022-12-03T01:44:54.015Z,99.90
2022-12-03T01:47:26.334Z,99.90
2022-12-03T01:50:01.273Z,99.90
2022-12-03T01:52:33.528Z,99.90
2022-12-03T01:55:06.217Z,99.90
2022-12-03T01:57:41.093Z,99.90
2022-12-03T02:00:14.504Z,99.90
2022-12-03T02:02:43.172Z,99.90
2022-12-03T02:05:20.573Z,99.90
2022-12-03T02:07:49.468Z,99.90
2022-12-03T02:10:20.089Z,99.90
2022-12-03T02:12:52.386Z,99.90
2022-12-03T02:15:21.161Z,99.90
2022-12-03T02:17:49.870Z,99.90
2022-12-03T02:20:20.182Z,99.90
2022-12-03T02:22:59.136Z,99.90
2022-12-03T02:25:32.211Z,99.90
2022-12-03T02:28:02.035Z,99.90
2022-12-03T02:30:32.284Z,99.90
2022-12-03T02:33:01.133Z,99.90
2022-12-03T02:35:34.194Z,99.90
2022-12-03T02:38:09.669Z,99.90
2022-12-03T02:40:40.276Z,99.90
2022-12-03T02:43:07.911Z,99.90
2022-12-03T02:45:38.290Z,99.90
2022-12-03T02:48:10.879Z,99.90
2022-12-03T02:50:42.507Z,99.90
2022-12-03T02:53:15.696Z,99.90
2022-12-03T02:55:46.332Z,99.90
2022-12-03T02:58:15.598Z,99.90
2022-12-03T03:00:45.319Z,99.90
2022-12-03T03:03:14.402Z,99.90
2022-12-03T03:05:43.267Z,99.90
2022-12-03T03:08:12.852Z,99.90
2022-12-03T03:10:42.809Z,99.90
2022-12-03T03:13:14.395Z,99.90
2022-12-03T03:15:44.259Z,99.90
2022-12-03T03:18:14.424Z,99.90
2022-12-03T03:20:43.855Z,99.90
2022-12-03T03:23:17.729Z,99.90
2022-12-03T03:25:48.955Z,99.90
2022-12-03T03:28:19.761Z,99.90
2022-12-03T03:30:48.552Z,99.90
2022-12-03T03:33:17.875Z,99.90
2022-12-03T03:35:47.777Z,99.90
2022-12-03T03:38:16.914Z,99.90
2022-12-03T03:40:45.876Z,99.90
2022-12-03T03:43:15.855Z,99.90
2022-12-03T03:45:46.902Z,99.90
2022-12-03T03:48:16.219Z,99.90
2022-12-03T03:50:45.837Z,99.90
2022-12-03T03:53:15.205Z,99.90
2022-12-03T03:55:44.469Z,99.90
2022-12-03T03:58:13.092Z,99.90
2022-12-03T04:00:43.226Z,99.90
2022-12-03T04:03:14.602Z,99.90
2022-12-03T04:05:43.154Z,99.90
2022-12-03T04:08:11.747Z,99.90
2022-12-03T04:10:57.435Z,99.90
2022-12-03T04:13:26.049Z,99.90
2022-12-03T04:15:54.858Z,99.90
2022-12-03T04:18:42.122Z,99.90
2022-12-03T04:21:28.460Z,99.90
2022-12-03T04:23:57.152Z,99.90
2022-12-03T04:26:43.315Z,99.90
2022-12-03T04:29:12.098Z,99.90
2022-12-03T04:31:57.938Z,99.90
2022-12-03T04:34:45.617Z,99.90
2022-12-03T04:37:14.279Z,99.90
2022-12-03T04:39:43.159Z,99.90
2022-12-03T04:42:11.846Z,99.90
2022-12-03T04:44:40.498Z,99.90
2022-12-03T04:47:11.699Z,99.90
2022-12-03T04:49:43.853Z,99.90
2022-12-03T04:52:13.402Z,99.90
2022-12-03T04:54:42.282Z,99.90
2022-12-03T04:57:11.781Z,99.90
2022-12-03T04:59:40.331Z,99.90
2022-12-03T05:02:09.413Z,99.90
2022-12-03T05:04:38.044Z,99.90
2022-12-03T05:07:08.098Z,99.90
2022-12-03T05:09:36.698Z,99.90
2022-12-03T05:12:05.643Z,99.90
2022-12-03T05:14:34.205Z,99.90
2022-12-03T05:17:02.852Z,99.90
2022-12-03T05:19:45.313Z,99.90
2022-12-03T05:22:15.442Z,99.90
2022-12-03T05:24:44.012Z,99.90
2022-12-03T05:27:12.568Z,99.90
2022-12-03T05:29:41.166Z,99.90
2022-12-03T05:32:09.789Z,99.90
2022-12-03T05:34:38.347Z,99.90
2022-12-03T05:37:06.964Z,99.90
2022-12-03T05:39:37.976Z,99.90
2022-12-03T05:42:29.706Z,99.90
2022-12-03T05:44:58.271Z,99.90
2022-12-03T05:47:26.854Z,99.90
2022-12-03T05:49:55.518Z,99.90
2022-12-03T05:52:24.129Z,99.90
2022-12-03T05:54:54.309Z,99.90
2022-12-03T05:57:23.018Z,99.90
2022-12-03T05:59:51.563Z,99.90
2022-12-03T06:02:20.589Z,99.90
2022-12-03T06:04:49.365Z,99.90
2022-12-03T06:07:17.884Z,99.90
2022-12-03T06:09:46.344Z,99.90
2022-12-03T06:12:16.374Z,99.90
2022-12-03T06:14:45.041Z,99.90
2022-12-03T06:17:13.582Z,99.90
2022-12-03T06:19:43.077Z,99.90
2022-12-03T06:22:13.387Z,99.90
2022-12-03T06:24:42.229Z,99.90
2022-12-03T06:27:10.820Z,99.90
2022-12-03T06:29:41.057Z,99.90
2022-12-03T06:32:09.910Z,99.90
2022-12-03T06:34:38.873Z,99.90
2022-12-03T06:37:07.492Z,99.90
2022-12-03T06:39:36.177Z,99.90
2022-12-03T06:42:04.907Z,99.90
2022-12-03T06:44:33.500Z,99.90
2022-12-03T06:47:04.454Z,99.90
2022-12-03T06:49:33.128Z,99.90
2022-12-03T06:52:01.648Z,99.90
2022-12-03T06:54:30.293Z,99.90
2022-12-03T06:56:58.855Z,99.90
2022-12-03T06:59:28.281Z,99.90
2022-12-03T07:01:56.916Z,99.90
2022-12-03T07:04:26.967Z,99.90
2022-12-03T07:06:55.721Z,99.90
2022-12-03T07:09:24.401Z,99.90
2022-12-03T07:11:53.591Z,99.90
2022-12-03T07:14:22.110Z,99.90
2022-12-03T07:16:50.647Z,99.90
2022-12-03T07:19:19.174Z,99.90
2022-12-03T07:21:49.086Z,99.90
2022-12-03T07:24:17.651Z,99.90
2022-12-03T07:26:46.163Z,99.90
2022-12-03T07:29:14.832Z,99.90
2022-12-03T07:31:43.409Z,99.90
2022-12-03T07:34:12.034Z,99.90
2022-12-03T07:36:40.567Z,99.90
2022-12-03T07:39:11.364Z,99.90
2022-12-03T07:41:39.971Z,99.90
2022-12-03T07:44:14.010Z,99.90
2022-12-03T07:46:43.780Z,99.90
2022-12-03T07:49:13.479Z,99.90
2022-12-03T07:51:43.052Z,99.90
2022-12-03T07:54:13.005Z,99.90
2022-12-03T07:56:42.675Z,99.90
2022-12-03T07:59:11.191Z,99.90
2022-12-03T08:01:40.053Z,99.90
2022-12-03T08:04:08.735Z,99.90
2022-12-03T08:06:39.008Z,99.90
2022-12-03T08:09:09.922Z,99.90
2022-12-03T08:11:45.283Z,99.90
2022-12-03T08:14:15.536Z,99.90
2022-12-03T08:16:46.505Z,99.90
2022-12-03T08:19:17.722Z,99.90
2022-12-03T08:21:46.946Z,99.90
2022-12-03T08:24:17.255Z,99.90
2022-12-03T08:26:50.428Z,99.90
2022-12-03T08:29:20.881Z,99.90
2022-12-03T08:31:52.207Z,99.90
2022-12-03T08:34:24.365Z,99.90
2022-12-03T08:36:57.887Z,99.90
2022-12-03T08:39:33.335Z,99.90
2022-12-03T08:42:30.982Z,99.90
2022-12-03T08:45:20.447Z,99.90
2022-12-03T08:47:49.100Z,99.90
2022-12-03T08:50:28.640Z,99.90
2022-12-03T08:53:01.771Z,99.90
2022-12-03T08:55:36.073Z,99.90
2022-12-03T08:58:20.550Z,99.90
2022-12-03T09:00:49.396Z,99.90
2022-12-03T09:03:20.677Z,99.90
2022-12-03T09:05:49.453Z,99.90
2022-12-03T09:08:18.140Z,99.90
2022-12-03T09:10:46.833Z,99.90
2022-12-03T09:13:16.849Z,99.90
2022-12-03T09:15:45.469Z,99.90
2022-12-03T09:18:14.785Z,99.90
2022-12-03T09:20:44.490Z,99.90
2022-12-03T09:23:13.010Z,99.90
2022-12-03T09:25:41.619Z,99.90
2022-12-03T09:28:10.504Z,99.90
2022-12-03T09:30:40.496Z,99.90
2022-12-03T09:33:10.022Z,99.90
2022-12-03T09:35:38.749Z,99.90
2022-12-03T09:38:07.235Z,99.90
2022-12-03T09:40:36.115Z,99.90
2022-12-03T09:43:06.438Z,99.90
2022-12-03T09:45:36.212Z,99.90
2022-12-03T09:48:06.585Z,99.90
2022-12-03T09:50:35.442Z,99.90
2022-12-03T09:53:04.920Z,99.90
2022-12-03T09:55:33.822Z,99.90
2022-12-03T09:58:02.543Z,99.90
2022-12-03T10:00:32.454Z,99.90
2022-12-03T10:03:05.897Z,99.90
2022-12-03T10:05:36.371Z,99.90
2022-12-03T10:08:07.581Z,99.90
2022-12-03T10:10:36.864Z,99.90
2022-12-03T10:13:06.122Z,99.90
2022-12-03T10:15:34.798Z,99.90
2022-12-03T10:18:14.960Z,99.90
2022-12-03T10:20:45.079Z,99.90
2022-12-03T10:23:21.500Z,99.90
2022-12-03T10:25:55.111Z,99.90
2022-12-03T10:28:32.774Z,99.90
2022-12-03T10:31:03.102Z,99.90
2022-12-03T10:33:34.449Z,99.90
2022-12-03T10:36:25.948Z,99.90
2022-12-03T10:39:12.975Z,99.90
2022-12-03T10:41:42.560Z,98.90
2022-12-03T10:44:19.207Z,99.20
2022-12-03T10:47:06.272Z,98.60
2022-12-03T10:49:35.099Z,98.90
2022-12-03T10:52:05.431Z,98.70
2022-12-03T10:54:36.115Z,98.30
2022-12-03T10:57:05.087Z,98.50
2022-12-03T10:59:35.364Z,98.40
2022-12-03T11:02:05.715Z,98.10
2022-12-03T11:04:35.777Z,98.00
2022-12-03T11:07:16.127Z,97.20
2022-12-03T11:09:46.668Z,97.10
2022-12-03T11:12:21.032Z,97.30
2022-12-03T11:15:06.675Z,97.50
2022-12-03T11:17:43.398Z,97.10
2022-12-03T11:20:30.534Z,97.10
2022-12-03T11:23:01.031Z,96.90
2022-12-03T11:25:49.672Z,96.70
2022-12-03T11:28:38.832Z,96.10
2022-12-03T11:31:15.148Z,96.60
2022-12-03T11:33:44.778Z,96.60
2022-12-03T11:36:15.582Z,96.10
2022-12-03T11:39:03.179Z,96.70
2022-12-03T11:41:35.893Z,96.70
2022-12-03T11:44:34.487Z,96.50
2022-12-03T11:47:15.201Z,96.80
2022-12-03T11:49:49.150Z,96.10
2022-12-03T11:52:28.239Z,95.60
2022-12-03T11:55:02.935Z,95.50
2022-12-03T11:57:37.623Z,94.70
2022-12-03T12:00:24.888Z,94.10
2022-12-03T12:02:55.654Z,93.40
2022-12-03T12:05:28.572Z,92.60
2022-12-03T12:07:58.217Z,92.90
2022-12-03T12:10:49.470Z,92.10
2022-12-03T12:13:51.244Z,91.90
2022-12-03T12:16:41.526Z,90.70
2022-12-03T12:19:34.937Z,90.20
2022-12-03T12:22:21.610Z,90.50
2022-12-03T12:24:55.206Z,91.00
2022-12-03T12:27:33.567Z,91.50
2022-12-03T12:30:05.893Z,92.10
2022-12-03T12:32:39.545Z,92.60
2022-12-03T12:35:16.979Z,92.60
2022-12-03T12:38:00.079Z,92.70
2022-12-03T12:40:32.386Z,92.80
2022-12-03T12:43:12.024Z,92.80
2022-12-03T12:45:44.537Z,93.20
2022-12-03T12:48:22.167Z,93.60
2022-12-03T12:50:58.419Z,93.00
2022-12-03T12:53:29.254Z,93.00
2022-12-03T12:56:00.558Z,93.40
2022-12-03T12:58:33.625Z,93.20
2022-12-03T13:01:06.967Z,93.60
2022-12-03T13:03:40.620Z,93.60
2022-12-03T13:06:16.276Z,93.60
2022-12-03T13:08:46.971Z,93.90
2022-12-03T13:11:34.581Z,94.50
2022-12-03T13:14:11.953Z,95.10
2022-12-03T13:16:40.854Z,94.60
2022-12-03T13:19:21.633Z,95.00
2022-12-03T13:21:51.100Z,95.00
2022-12-03T13:24:33.393Z,95.20
2022-12-03T13:27:21.793Z,95.00
2022-12-03T13:29:54.823Z,94.60
2022-12-03T13:32:30.932Z,94.40
2022-12-03T13:35:08.965Z,94.50
2022-12-03T13:37:39.286Z,94.00
2022-12-03T13:40:19.637Z,93.90
2022-12-03T13:42:48.640Z,94.00
2022-12-03T13:45:42.819Z,94.30
2022-12-03T13:48:21.657Z,94.20
2022-12-03T13:50:50.720Z,94.10
2022-12-03T13:53:40.240Z,94.50
2022-12-03T13:56:27.300Z,95.10
2022-12-03T13:58:56.167Z,95.60
2022-12-03T14:01:26.161Z,96.00
2022-12-03T14:03:57.348Z,96.50
2022-12-03T14:06:25.817Z,96.60
2022-12-03T14:08:54.408Z,96.80
2022-12-03T14:11:40.295Z,97.60
2022-12-03T14:14:09.139Z,97.80
2022-12-03T14:16:39.084Z,97.50
2022-12-03T14:19:07.758Z,97.50
2022-12-03T14:21:36.351Z,97.90
2022-12-03T14:24:05.421Z,98.50
2022-12-03T14:26:34.963Z,98.80
2022-12-03T14:29:08.534Z,99.00
2022-12-03T14:31:38.984Z,99.50
2022-12-03T14:34:07.457Z,98.70
2022-12-03T14:36:35.950Z,98.70
2022-12-03T14:39:04.520Z,98.30
2022-12-03T14:41:50.295Z,98.10
2022-12-03T14:44:21.919Z,98.20
2022-12-03T14:46:56.892Z,99.90
2022-12-03T14:49:25.941Z,98.90
2022-12-03T14:51:54.801Z,99.20
2022-12-03T14:54:24.375Z,98.60
2022-12-03T14:56:52.859Z,98.70
2022-12-03T14:59:26.025Z,98.30
2022-12-03T15:01:57.950Z,99.00
2022-12-03T15:04:26.995Z,99.00
2022-12-03T15:06:55.517Z,99.30
2022-12-03T15:09:24.283Z,98.90
2022-12-03T15:11:53.442Z,98.20
2022-12-03T15:14:23.746Z,98.10
2022-12-03T15:16:52.311Z,98.40
2022-12-03T15:19:22.198Z,98.40
2022-12-03T15:21:50.653Z,98.60
2022-12-03T15:24:19.278Z,98.80
2022-12-03T15:26:47.754Z,98.70
2022-12-03T15:29:16.226Z,98.40
2022-12-03T15:31:44.830Z,98.80
2022-12-03T15:34:18.755Z,98.70
2022-12-03T15:36:53.116Z,99.10
2022-12-03T15:39:22.029Z,99.40
2022-12-03T15:41:50.497Z,99.40
2022-12-03T15:44:19.116Z,99.60
2022-12-03T15:46:47.624Z,99.20
2022-12-03T15:49:16.150Z,99.30
2022-12-03T15:51:44.624Z,99.30
2022-12-03T15:54:14.523Z,99.50
2022-12-03T15:56:43.046Z,99.10
2022-12-03T15:59:13.082Z,99.10
2022-12-03T16:01:41.712Z,99.20
2022-12-03T16:04:10.258Z,99.00
2022-12-03T16:06:38.790Z,99.00
2022-12-03T16:09:07.262Z,99.00
2022-12-03T16:11:37.127Z,99.00
2022-12-03T16:14:05.665Z,98.90
2022-12-03T16:16:34.219Z,98.70
2022-12-03T16:19:02.751Z,99.10
2022-12-03T16:21:34.775Z,99.60
2022-12-03T16:24:09.274Z,99.90
2022-12-03T16:26:40.102Z,99.50
2022-12-03T16:29:08.653Z,99.90
2022-12-03T16:31:37.155Z,99.80
2022-12-03T16:34:05.898Z,99.30
2022-12-03T16:36:34.372Z,99.60
2022-12-03T16:39:02.910Z,99.50
2022-12-03T16:41:31.449Z,99.50
2022-12-03T16:44:02.584Z,99.50
2022-12-03T16:46:31.420Z,99.40
2022-12-03T16:49:00.279Z,99.40
2022-12-03T16:51:30.359Z,99.40
2022-12-03T16:53:58.929Z,99.90
2022-12-03T16:56:27.446Z,99.50
2022-12-03T16:58:55.907Z,99.40
2022-12-03T17:01:25.880Z,99.50
2022-12-03T17:03:55.199Z,99.70
2022-12-03T17:06:23.937Z,99.70
2022-12-03T17:08:52.466Z,99.50
2022-12-03T17:11:21.079Z,99.50
2022-12-03T17:13:49.631Z,99.50
2022-12-03T17:16:19.101Z,99.50
2022-12-03T17:18:49.113Z,99.50
2022-12-03T17:21:18.065Z,99.80
2022-12-03T17:23:48.923Z,99.70
2022-12-03T17:26:17.841Z,99.60
2022-12-03T17:28:46.438Z,99.60
2022-12-03T17:31:15.144Z,99.30
2022-12-03T17:33:43.643Z,99.30
2022-12-03T17:36:13.570Z,99.40
2022-12-03T17:38:42.059Z,99.40
2022-12-03T17:41:10.520Z,99.80
2022-12-03T17:43:39.021Z,99.40
2022-12-03T17:46:07.788Z,99.20
2022-12-03T17:48:36.957Z,99.20
2022-12-03T17:51:05.761Z,99.20
2022-12-03T17:53:35.694Z,98.90
2022-12-03T17:56:05.247Z,98.90
2022-12-03T17:58:33.710Z,98.90
2022-12-03T18:01:03.238Z,98.90
2022-12-03T18:03:32.122Z,98.90
2022-12-03T18:06:00.770Z,99.10
2022-12-03T18:08:29.659Z,99.00
2022-12-03T18:10:59.624Z,99.10
2022-12-03T18:13:28.227Z,99.10
2022-12-03T18:15:56.736Z,99.20
2022-12-03T18:18:25.348Z,99.40
2022-12-03T18:20:54.620Z,99.60
2022-12-03T18:23:23.145Z,99.80
2022-12-03T18:25:51.661Z,99.90
2022-12-03T18:28:21.539Z,99.90
2022-12-03T18:30:52.666Z,99.90
2022-12-03T18:33:23.396Z,99.50
2022-12-03T18:35:55.418Z,99.30
2022-12-03T18:38:29.431Z,99.30
2022-12-03T18:40:58.824Z,99.40
2022-12-03T18:43:29.237Z,99.40
2022-12-03T18:45:57.735Z,99.40
2022-12-03T18:48:26.635Z,99.60
2022-12-03T18:50:56.494Z,99.60
2022-12-03T18:53:25.057Z,99.60
2022-12-03T18:55:53.577Z,99.60
2022-12-03T18:58:22.125Z,99.70
2022-12-03T19:00:52.068Z,99.40
2022-12-03T19:03:22.300Z,99.40
2022-12-03T19:05:51.103Z,99.50
2022-12-03T19:08:20.923Z,99.60
2022-12-03T19:10:57.803Z,99.70
2022-12-03T19:13:27.399Z,99.80
2022-12-03T19:15:57.402Z,99.90
2022-12-03T19:18:26.161Z,99.90
2022-12-03T19:20:55.154Z,99.90
2022-12-03T19:23:23.650Z,99.90
2022-12-03T19:26:00.106Z,99.90
2022-12-03T19:28:29.652Z,99.80
2022-12-03T19:31:01.034Z,99.90
2022-12-03T19:33:33.654Z,99.80
2022-12-03T19:36:02.930Z,99.90
2022-12-03T19:38:31.603Z,99.90
2022-12-03T19:41:01.573Z,99.90
2022-12-03T19:43:31.815Z,99.90
2022-12-03T19:46:05.800Z,99.90
2022-12-03T19:48:35.009Z,99.90
2022-12-03T19:51:32.387Z,99.90
2022-12-03T19:53:55.734Z,99.90
2022-12-03T19:56:24.395Z,99.90
2022-12-03T19:58:56.812Z,99.90
2022-12-03T20:01:29.442Z,99.80
2022-12-03T20:04:01.340Z,99.90
2022-12-03T20:06:33.075Z,99.90
2022-12-03T20:09:03.927Z,99.90
2022-12-03T20:11:34.428Z,99.90
2022-12-03T20:14:04.759Z,99.90
2022-12-03T20:16:35.399Z,99.90
2022-12-03T20:19:06.331Z,99.50
2022-12-03T20:21:36.453Z,99.10
2022-12-03T20:24:05.364Z,99.20
2022-12-03T20:26:34.231Z,99.30
2022-12-03T20:29:03.172Z,99.70
2022-12-03T20:31:32.827Z,99.70
2022-12-03T20:34:04.263Z,99.40
2022-12-03T20:36:35.355Z,99.40
2022-12-03T20:39:06.235Z,99.20
2022-12-03T20:41:36.999Z,99.10
2022-12-03T20:44:07.636Z,99.00
2022-12-03T20:46:36.937Z,99.30
2022-12-03T20:49:06.953Z,99.30
2022-12-03T20:51:35.582Z,99.30
2022-12-03T20:54:04.056Z,99.10
2022-12-03T20:56:34.845Z,99.20
2022-12-03T20:59:05.000Z,99.30
2022-12-03T21:01:34.479Z,99.30
2022-12-03T21:04:04.799Z,99.00
2022-12-03T21:06:36.273Z,99.00
2022-12-03T21:09:07.526Z,98.90
2022-12-03T21:11:39.169Z,99.10
2022-12-03T21:14:07.868Z,99.20
2022-12-03T21:17:07.158Z,99.60
2022-12-03T21:19:27.946Z,99.80
2022-12-03T21:21:57.934Z,99.20
2022-12-03T21:24:26.712Z,99.60
2022-12-03T21:26:55.316Z,99.40
2022-12-03T21:29:24.945Z,99.50
2022-12-03T21:31:53.371Z,99.60
2022-12-03T21:34:21.865Z,99.80
2022-12-03T21:36:50.352Z,99.60
2022-12-03T21:39:20.608Z,99.60
2022-12-03T21:42:33.860Z,99.60
2022-12-03T21:44:38.615Z,99.80
2022-12-03T21:47:11.639Z,99.80
2022-12-03T21:49:43.287Z,99.60
2022-12-03T21:52:11.840Z,99.70
2022-12-03T21:54:41.758Z,99.50
2022-12-03T21:57:10.474Z,99.40
2022-12-03T21:59:38.938Z,99.30
2022-12-03T22:02:07.914Z,99.40
2022-12-03T22:04:36.635Z,99.70
2022-12-03T22:07:05.456Z,99.50
2022-12-03T22:09:34.472Z,99.80
2022-12-03T22:12:04.388Z,99.60
2022-12-03T22:14:33.002Z,99.60
2022-12-03T22:17:01.511Z,99.60
2022-12-03T22:19:30.191Z,99.90
2022-12-03T22:21:58.802Z,99.60
2022-12-03T22:24:27.313Z,99.40
2022-12-03T22:26:55.985Z,99.40
2022-12-03T22:29:25.830Z,99.60
2022-12-03T22:31:54.297Z,99.80
2022-12-03T22:34:23.022Z,99.80
2022-12-03T22:36:51.463Z,99.80
2022-12-03T22:39:20.040Z,99.90
2022-12-03T22:41:48.622Z,99.90
2022-12-03T22:44:17.101Z,99.90
2022-12-03T22:46:47.013Z,99.90
2022-12-03T22:49:15.778Z,99.90
2022-12-03T22:51:46.628Z,99.90
2022-12-03T22:54:18.306Z,99.90
2022-12-03T22:56:50.900Z,99.90
2022-12-03T22:59:21.660Z,99.90
2022-12-03T23:01:51.613Z,99.90
2022-12-03T23:04:20.183Z,99.90
2022-12-03T23:06:48.777Z,99.90
2022-12-03T23:09:18.034Z,99.90
2022-12-03T23:11:46.752Z,99.90
2022-12-03T23:14:15.380Z,99.90
2022-12-03T23:16:43.917Z,99.90
2022-12-03T23:19:14.777Z,99.90
2022-12-03T23:21:44.131Z,99.90
2022-12-03T23:24:12.672Z,99.90
2022-12-03T23:26:41.220Z,99.90
2022-12-03T23:29:09.719Z,99.90
2022-12-03T23:31:38.416Z,99.90
2022-12-03T23:34:07.403Z,99.90
2022-12-03T23:36:37.461Z,99.90
2022-12-03T23:39:06.162Z,99.90
2022-12-03T23:41:34.658Z,99.90
2022-12-03T23:44:03.172Z,99.90
2022-12-03T23:46:31.741Z,99.90
2022-12-03T23:49:01.185Z,99.90
2022-12-03T23:51:29.762Z,99.90
2022-12-03T23:53:59.706Z,99.90
2022-12-03T23:56:30.730Z,99.90
2022-12-03T23:59:00.169Z,99.90
